Terminal Aerodrome Forecast
Issued by NWS Binghamton, NY

Home | Current Version | Previous Version | Text Only | Print | Product List | Glossary On
Versions: 1 2 3 4 5 6 7 8 9 10 11 12 13 14 15 16 17 18 19 20 21 22
000
FTUS41 KBGM 231100
TAFSYR
TAF
KSYR 231132Z 2312/2412 22008KT P6SM OVC035
     FM232000 14006KT P6SM SCT040 BKN060
     FM240300 12010KT P6SM FEW025 BKN120 WS015/19045KT
     FM240700 13014KT P6SM -SHRA OVC020 WS015/16050KT=

USA.gov is the U.S. government's official web portal to all federal, state and local government web resources and services.